Time;durP1;ratioP1;P1;durP2;ratioP2;P2;SDS_P1;SDS_P2;PMS_P1;PMS_P2;Temp;Humidity;BMP_temperature;BMP_pressure;BME280_temperature;BME280_humidity;BME280_pressure;Samples;Min_cycle;Max_cycle;Signal;HPM_P1;HPM_P2
2021/03/23 00:00:22;;;;;;;5.82;2.67;;;;;;;-1.38;56.07;98675.68;366359;109;1961931;-71
2021/03/23 00:01:28;;;;;;;7.07;3.10;;;;;;;-1.40;56.16;98682.15;363249;109;1965007;-71
2021/03/23 00:02:35;;;;;;;7.41;3.03;;;;;;;-1.41;56.14;98678.64;350370;111;2302946;-71
2021/03/23 00:03:44;;;;;;;9.41;3.32;;;;;;;-1.42;56.38;98676.16;363521;111;1959976;-71
2021/03/23 00:04:49;;;;;;;7.81;2.97;;;;;;;-1.44;56.22;98686.90;337039;109;1963999;-71
2021/03/23 00:05:56;;;;;;;7.28;2.57;;;;;;;-1.48;56.52;98676.76;365201;111;1960902;-71
2021/03/23 00:07:03;;;;;;;6.74;2.69;;;;;;;-1.48;56.53;98685.56;360063;113;1961987;-71
2021/03/23 00:08:12;;;;;;;7.62;2.90;;;;;;;-1.51;56.49;98682.37;356041;109;1961910;-70
2021/03/23 00:09:17;;;;;;;9.08;2.92;;;;;;;-1.55;56.59;98674.73;351557;109;1962010;-71
2021/03/23 00:10:27;;;;;;;7.86;3.35;;;;;;;-1.57;56.67;98675.87;365511;109;1962000;-71
2021/03/23 00:11:41;;;;;;;8.16;3.36;;;;;;;-1.58;56.67;98677.69;362004;109;1962012;31
2021/03/23 00:12:47;;;;;;;7.01;2.88;;;;;;;-1.58;56.89;98676.86;358442;110;1963099;-70
2021/03/23 00:13:55;;;;;;;7.01;2.69;;;;;;;-1.59;56.74;98680.48;366539;106;1962955;-70
2021/03/23 00:15:00;;;;;;;8.06;2.71;;;;;;;-1.63;56.96;98679.97;366892;109;1965017;-71
2021/03/23 00:16:06;;;;;;;6.57;2.61;;;;;;;-1.64;56.83;98691.55;364563;111;1962008;-70
2021/03/23 00:17:12;;;;;;;6.68;2.19;;;;;;;-1.68;56.82;98679.59;322936;111;2235975;-70
2021/03/23 00:18:19;;;;;;;6.28;3.07;;;;;;;-1.70;56.98;98681.55;364698;109;1963892;-70
2021/03/23 00:19:25;;;;;;;6.31;2.38;;;;;;;-1.69;56.89;98687.67;366959;109;1961989;-70
2021/03/23 00:20:31;;;;;;;6.80;2.29;;;;;;;-1.72;56.92;98694.12;317704;111;2242704;-70
2021/03/23 00:21:36;;;;;;;6.82;2.90;;;;;;;-1.72;56.75;98682.69;345623;114;1963983;-70
2021/03/23 00:22:43;;;;;;;6.98;2.31;;;;;;;-1.74;56.88;98680.20;372308;108;1962024;-72
2021/03/23 00:23:49;;;;;;;6.41;2.76;;;;;;;-1.75;56.82;98689.11;337563;108;2580970;-71
2021/03/23 00:24:54;;;;;;;7.87;2.46;;;;;;;-1.76;56.92;98679.52;363635;107;1961945;-70
2021/03/23 00:25:59;;;;;;;7.98;3.01;;;;;;;-1.78;56.84;98682.30;372105;107;1961948;-72
2021/03/23 00:27:06;;;;;;;7.30;2.58;;;;;;;-1.79;56.93;98685.12;373762;107;1961962;-71
2021/03/23 00:28:11;;;;;;;5.72;2.74;;;;;;;-1.80;56.93;98680.79;352517;108;2419113;-71
2021/03/23 00:29:17;;;;;;;5.39;2.21;;;;;;;-1.81;56.90;98679.96;370196;108;1961941;-70
2021/03/23 00:30:23;;;;;;;4.99;2.01;;;;;;;-1.82;56.95;98680.95;371664;108;1962054;-70
2021/03/23 00:31:31;;;;;;;5.09;2.47;;;;;;;-1.83;56.83;98676.63;371430;108;1961933;-70
2021/03/23 00:32:38;;;;;;;5.81;2.00;;;;;;;-1.87;56.99;98667.34;368245;108;1961914;-70
2021/03/23 00:33:44;;;;;;;5.56;1.98;;;;;;;-1.88;56.98;98672.77;332649;104;2097361;-71
2021/03/23 00:34:50;;;;;;;4.01;1.77;;;;;;;-1.88;57.06;98675.42;367223;111;1961998;-71
2021/03/23 00:35:59;;;;;;;6.03;1.89;;;;;;;-1.90;57.03;98666.83;357905;113;1961926;-71
2021/03/23 00:37:06;;;;;;;5.76;1.97;;;;;;;-1.90;57.11;98674.77;354730;110;1961952;-71
2021/03/23 00:38:12;;;;;;;5.87;2.04;;;;;;;-1.94;57.23;98670.74;342521;111;2277004;-70
2021/03/23 00:39:17;;;;;;;4.01;1.95;;;;;;;-1.95;57.22;98671.73;364960;108;1961890;-70
2021/03/23 00:40:28;;;;;;;4.33;1.73;;;;;;;-1.99;57.24;98673.83;341528;111;2903989;-70
2021/03/23 00:41:38;;;;;;;5.55;1.81;;;;;;;-2.03;57.43;98673.31;325180;108;2916990;-71
2021/03/23 00:42:44;;;;;;;4.08;1.93;;;;;;;-2.04;57.39;98668.16;337294;111;2520955;-71
2021/03/23 00:43:49;;;;;;;5.99;2.07;;;;;;;-2.07;57.49;98673.75;356936;108;1962001;-71
2021/03/23 00:44:55;;;;;;;7.72;2.19;;;;;;;-2.05;57.46;98674.44;363576;109;1961799;-71
2021/03/23 00:46:04;;;;;;;5.74;1.67;;;;;;;-2.06;57.44;98683.37;369305;108;1961980;31
2021/03/23 00:47:10;;;;;;;5.68;1.90;;;;;;;-2.08;57.51;98672.92;366353;107;1962905;-71
2021/03/23 00:48:18;;;;;;;5.74;1.75;;;;;;;-2.10;57.56;98680.17;323629;110;2192806;-71
2021/03/23 00:49:24;;;;;;;4.87;2.03;;;;;;;-2.13;57.65;98680.48;367910;107;1960731;-71
2021/03/23 00:50:32;;;;;;;5.37;2.21;;;;;;;-2.14;57.84;98680.61;367002;107;1960725;-71
2021/03/23 00:51:38;;;;;;;6.76;2.58;;;;;;;-2.15;57.72;98685.08;368615;108;1960760;-71
2021/03/23 00:52:44;;;;;;;7.47;2.13;;;;;;;-2.17;57.71;98684.42;337855;107;1960784;-70
2021/03/23 00:53:49;;;;;;;7.71;1.77;;;;;;;-2.17;57.80;98678.27;366202;107;1960772;-71
2021/03/23 00:54:54;;;;;;;5.97;2.31;;;;;;;-2.16;57.89;98674.66;363534;110;1960747;-71
2021/03/23 00:56:01;;;;;;;5.26;2.24;;;;;;;-2.18;57.87;98673.97;362961;110;1960807;-71
2021/03/23 00:57:07;;;;;;;6.67;2.39;;;;;;;-2.18;57.95;98677.45;344042;105;1959410;-71
2021/03/23 00:58:21;;;;;;;5.61;2.36;;;;;;;-2.19;58.02;98678.44;372441;109;1962979;-71
2021/03/23 00:59:27;;;;;;;6.03;2.08;;;;;;;-2.20;58.00;98674.11;379159;106;1961926;-71
2021/03/23 01:00:35;;;;;;;6.27;2.29;;;;;;;-2.22;57.94;98676.92;339933;107;2640956;-71
2021/03/23 01:01:42;;;;;;;5.77;1.82;;;;;;;-2.25;58.11;98676.36;371481;106;1963426;-71
2021/03/23 01:02:50;;;;;;;5.62;2.07;;;;;;;-2.24;58.19;98678.88;375016;106;1961921;-70
2021/03/23 01:03:56;;;;;;;12.70;4.34;;;;;;;-2.25;58.16;98676.36;376358;105;1960849;-71
2021/03/23 01:05:06;;;;;;;5.00;1.97;;;;;;;-2.25;58.26;98673.72;350164;108;2229006;-71
2021/03/23 01:06:12;;;;;;;6.25;2.32;;;;;;;-2.25;58.12;98676.36;357090;107;1961949;-71
2021/03/23 01:07:18;;;;;;;5.96;1.92;;;;;;;-2.26;58.06;98674.72;374032;108;1961956;-71
2021/03/23 01:08:24;;;;;;;6.62;2.33;;;;;;;-2.27;58.12;98668.59;375012;103;1962246;-71
2021/03/23 01:09:29;;;;;;;7.36;2.57;;;;;;;-2.28;58.25;98681.96;341584;107;2557933;-70
2021/03/23 01:10:35;;;;;;;7.86;2.49;;;;;;;-2.27;58.35;98676.53;373416;108;1961845;-71
2021/03/23 01:11:41;;;;;;;6.67;2.29;;;;;;;-2.25;58.25;98679.02;374530;108;1961935;-70
2021/03/23 01:12:47;;;;;;;6.75;2.73;;;;;;;-2.24;58.31;98675.41;371018;108;1963991;-71
2021/03/23 01:13:57;;;;;;;6.88;1.71;;;;;;;-2.25;58.36;98677.22;340230;109;1963034;-71
2021/03/23 01:15:06;;;;;;;5.66;2.19;;;;;;;-2.24;58.41;98680.70;346808;111;1961947;-71
2021/03/23 01:16:13;;;;;;;6.20;2.20;;;;;;;-2.26;58.25;98677.36;359014;111;1961934;-71
2021/03/23 01:17:19;;;;;;;5.84;1.82;;;;;;;-2.27;58.23;98676.53;359741;111;1961925;-72
2021/03/23 01:18:25;;;;;;;5.61;2.12;;;;;;;-2.27;58.34;98675.70;345140;111;2243909;-71
2021/03/23 01:19:30;;;;;;;5.99;2.26;;;;;;;-2.27;58.39;98675.70;355934;108;1961989;-71
2021/03/23 01:20:36;;;;;;;6.81;2.04;;;;;;;-2.28;58.31;98671.38;364475;111;1961940;-71
2021/03/23 01:21:42;;;;;;;7.24;2.52;;;;;;;-2.29;58.44;98677.66;357486;112;1961879;-70
2021/03/23 01:22:48;;;;;;;5.53;2.34;;;;;;;-2.28;58.43;98679.31;332959;112;2555958;-71
2021/03/23 01:23:53;;;;;;;7.94;2.57;;;;;;;-2.30;58.58;98675.98;359504;112;1962019;-70
2021/03/23 01:24:58;;;;;;;8.36;2.91;;;;;;;-2.30;58.50;98676.84;356375;112;1961957;-69
2021/03/23 01:26:04;;;;;;;7.94;2.78;;;;;;;-2.32;58.65;98670.03;358416;112;1962014;-70
2021/03/23 01:27:10;;;;;;;8.65;2.71;;;;;;;-2.36;58.77;98674.77;340905;112;2388025;-70
2021/03/23 01:28:15;;;;;;;8.36;2.66;;;;;;;-2.35;58.85;98676.45;349779;108;1964932;-71
2021/03/23 01:29:21;;;;;;;6.99;3.40;;;;;;;-2.36;59.14;98672.12;361151;111;1961927;-70
2021/03/23 01:30:29;;;;;;;6.57;2.58;;;;;;;-2.34;58.91;98677.27;312614;112;2871985;-70
2021/03/23 01:31:35;;;;;;;8.77;2.99;;;;;;;-2.31;58.93;98677.80;359729;112;1961994;-70
2021/03/23 01:32:41;;;;;;;6.83;2.62;;;;;;;-2.29;58.71;98675.02;362375;112;1961920;-70
2021/03/23 01:33:46;;;;;;;9.23;2.98;;;;;;;-2.30;58.66;98675.98;345147;112;2230927;-71
2021/03/23 01:34:52;;;;;;;7.16;2.77;;;;;;;-2.32;58.75;98677.96;346759;112;1962961;-70
2021/03/23 01:35:57;;;;;;;6.30;2.34;;;;;;;-2.31;58.97;98674.33;361495;112;1962974;-70
2021/03/23 01:37:04;;;;;;;7.08;2.93;;;;;;;-2.30;58.79;98684.77;357662;112;1963948;-71
2021/03/23 01:38:09;;;;;;;8.91;3.02;;;;;;;-2.32;58.82;98681.44;327803;112;2234980;-70
2021/03/23 01:39:24;;;;;;;8.52;2.69;;;;;;;-2.31;58.87;98671.68;363203;112;1961883;-70
2021/03/23 01:40:33;;;;;;;8.44;2.88;;;;;;;-2.33;58.87;98681.57;365635;105;1961999;-70
2021/03/23 01:41:39;;;;;;;7.57;2.70;;;;;;;-2.30;58.94;98678.62;365725;108;1961910;-71
2021/03/23 01:42:47;;;;;;;6.07;2.66;;;;;;;-2.31;58.92;98676.97;362443;111;1962937;-71
2021/03/23 01:43:53;;;;;;;7.82;3.01;;;;;;;-2.34;59.07;98674.63;363589;106;1961956;-71
2021/03/23 01:45:35;;;;;;;6.02;2.39;;;;;;;-2.36;59.09;98669.47;366161;110;1964070;-71
2021/03/23 01:46:50;;;;;;;6.39;2.35;;;;;;;-2.37;59.28;98683.69;364657;110;1962991;-70
2021/03/23 01:47:58;;;;;;;9.53;2.80;;;;;;;-2.39;59.29;98679.53;353632;112;1963946;-70
2021/03/23 01:49:11;;;;;;;6.42;2.69;;;;;;;-2.38;59.30;98676.75;361056;112;1963929;-71
2021/03/23 01:50:18;;;;;;;7.05;2.67;;;;;;;-2.38;59.32;98676.75;318395;112;2797838;-71
2021/03/23 01:51:24;;;;;;;6.94;2.86;;;;;;;-2.39;59.42;98677.70;360942;110;1962009;-70
2021/03/23 01:52:31;;;;;;;6.59;3.37;;;;;;;-2.40;59.47;98675.23;361448;112;1961030;-70
2021/03/23 01:53:39;;;;;;;5.73;2.33;;;;;;;-2.40;59.41;98677.88;325094;110;2040056;-70
2021/03/23 01:54:57;;;;;;;5.83;2.75;;;;;;;-2.38;59.39;98675.89;336374;110;2197903;-72
2021/03/23 01:56:06;;;;;;;6.01;2.39;;;;;;;-2.38;59.54;98681.18;359637;110;1962003;-71
2021/03/23 01:57:13;;;;;;;9.19;2.76;;;;;;;-2.41;59.61;98671.72;360844;112;1960693;-71
2021/03/23 01:58:20;;;;;;;12.21;3.41;;;;;;;-2.40;59.46;98677.88;316613;112;2176880;-71
2021/03/23 01:59:26;;;;;;;6.46;2.59;;;;;;;-2.43;59.85;98676.36;361508;110;1960939;-70
2021/03/23 02:00:32;;;;;;;6.49;2.43;;;;;;;-2.44;59.66;98672.85;317018;110;2206311;-71
2021/03/23 02:01:38;;;;;;;8.52;2.60;;;;;;;-2.45;59.74;98675.66;360799;110;1961952;-70
2021/03/23 02:02:44;;;;;;;6.38;2.72;;;;;;;-2.50;59.84;98672.63;359759;112;1961953;-70
2021/03/23 02:03:50;;;;;;;7.36;2.75;;;;;;;-2.51;60.03;98678.91;343111;111;2207949;-71
2021/03/23 02:04:56;;;;;;;8.32;3.14;;;;;;;-2.52;60.02;98669.29;357790;110;1961914;-70
2021/03/23 02:06:10;;;;;;;10.03;2.93;;;;;;;-2.53;59.99;98667.64;359734;112;1961965;31
2021/03/23 02:07:15;;;;;;;8.26;2.84;;;;;;;-2.57;60.17;98675.02;365304;109;1962960;-71
2021/03/23 02:08:21;;;;;;;8.54;2.89;;;;;;;-2.59;60.14;98674.34;372058;109;1963877;-71
2021/03/23 02:09:30;;;;;;;7.79;2.88;;;;;;;-2.60;60.47;98671.84;361131;109;2237045;-70
2021/03/23 02:10:37;;;;;;;6.94;3.13;;;;;;;-2.60;60.30;98672.66;341986;104;2232787;-72
2021/03/23 02:11:45;;;;;;;9.52;3.29;;;;;;;-2.60;60.20;98670.02;362365;109;1961945;-72
2021/03/23 02:12:52;;;;;;;9.21;3.38;;;;;;;-2.61;60.24;98672.83;354930;113;1962017;-71
2021/03/23 02:13:58;;;;;;;11.82;4.35;;;;;;;-2.61;60.47;98668.37;356857;114;1962013;-70
2021/03/23 02:15:06;;;;;;;8.35;3.59;;;;;;;-2.63;60.51;98675.61;322826;113;2216981;-70
2021/03/23 02:16:13;;;;;;;9.18;3.87;;;;;;;-2.66;60.32;98671.44;328311;113;2201951;-70
2021/03/23 02:17:25;;;;;;;8.58;3.57;;;;;;;-2.68;60.47;98677.85;349687;111;1961973;-71
2021/03/23 02:18:30;;;;;;;9.37;4.35;;;;;;;-2.70;60.69;98679.80;354925;112;1962047;-71
2021/03/23 02:19:36;;;;;;;9.43;3.96;;;;;;;-2.72;60.73;98684.42;345379;114;2226021;-70
2021/03/23 02:21:04;;;;;;;7.87;3.76;;;;;;;-2.71;60.90;98676.33;355074;113;1963000;-71
2021/03/23 02:22:25;;;;;;;10.92;4.08;;;;;;;-2.72;60.81;98682.61;328932;113;2548918;-72
2021/03/23 02:23:34;;;;;;;8.53;3.51;;;;;;;-2.73;60.65;98683.57;355983;112;1961967;-71
2021/03/23 02:24:39;;;;;;;9.37;3.71;;;;;;;-2.76;60.91;98683.86;355842;113;1961961;-70
2021/03/23 02:25:45;;;;;;;7.54;3.89;;;;;;;-2.76;61.09;98685.69;356238;111;1961975;-71
2021/03/23 02:26:51;;;;;;;10.18;3.58;;;;;;;-2.79;60.89;98678.88;355665;113;1962011;-71
2021/03/23 02:27:56;;;;;;;8.87;3.21;;;;;;;-2.79;60.92;98685.98;319229;114;2705973;-72
2021/03/23 02:29:14;;;;;;;8.05;3.24;;;;;;;-2.79;61.32;98685.98;336407;112;1961914;-69
2021/03/23 02:30:32;;;;;;;8.11;3.01;;;;;;;-2.80;61.01;98681.68;330647;113;2521012;-69
2021/03/23 02:31:44;;;;;;;9.08;3.33;;;;;;;-2.80;61.29;98684.33;353813;111;1962021;-70
2021/03/23 02:32:50;;;;;;;8.36;3.23;;;;;;;-2.82;61.53;98683.63;355238;111;1961992;-70
2021/03/23 02:33:58;;;;;;;10.06;3.51;;;;;;;-2.83;61.60;98682.80;351892;113;1961945;-70
2021/03/23 02:35:04;;;;;;;10.56;3.32;;;;;;;-2.83;61.48;98681.95;353729;114;1961982;-70
2021/03/23 02:36:10;;;;;;;11.47;3.82;;;;;;;-2.84;61.58;98680.29;355304;107;1961945;-70
2021/03/23 02:37:17;;;;;;;10.63;4.25;;;;;;;-2.84;61.94;98686.41;327110;110;2623960;-71
2021/03/23 02:38:22;;;;;;;8.83;3.17;;;;;;;-2.84;61.51;98689.05;353803;113;1963997;-71
2021/03/23 02:39:30;;;;;;;11.02;4.11;;;;;;;-2.87;61.71;98684.05;354431;113;1962001;-70
2021/03/23 02:40:36;;;;;;;8.17;3.48;;;;;;;-2.87;61.60;98689.34;352671;115;1961952;-70
2021/03/23 02:41:42;;;;;;;9.18;3.74;;;;;;;-2.86;61.62;98688.35;348043;115;1961955;-71
2021/03/23 02:42:48;;;;;;;8.99;3.76;;;;;;;-2.86;61.68;98683.06;323636;117;2471998;-72
2021/03/23 02:43:53;;;;;;;9.57;3.08;;;;;;;-2.84;61.45;98683.76;341690;113;1963988;-71
2021/03/23 02:44:58;;;;;;;7.99;3.83;;;;;;;-2.84;61.44;98685.58;357375;104;1960671;-70
2021/03/23 02:46:05;;;;;;;9.78;3.73;;;;;;;-2.85;61.68;98683.92;360263;113;1961896;-71
2021/03/23 02:47:11;;;;;;;8.11;3.69;;;;;;;-2.85;61.76;98689.20;328289;111;2691959;-71
2021/03/23 02:48:17;;;;;;;8.79;3.01;;;;;;;-2.85;61.88;98683.92;365305;110;1963986;-69
2021/03/23 02:49:23;;;;;;;9.78;4.51;;;;;;;-2.87;61.96;98679.59;363491;110;1962002;-70
2021/03/23 02:50:30;;;;;;;8.68;3.22;;;;;;;-2.86;61.75;98685.70;365018;110;1963967;-70
2021/03/23 02:51:36;;;;;;;9.26;3.43;;;;;;;-2.83;61.67;98684.59;363299;110;1960980;-70
2021/03/23 02:52:43;;;;;;;8.34;3.99;;;;;;;-2.85;61.64;98687.39;323730;111;2921958;-70
2021/03/23 02:53:49;;;;;;;7.14;3.15;;;;;;;-2.87;61.80;98690.16;363655;110;1962046;-69
2021/03/23 02:54:54;;;;;;;9.56;3.45;;;;;;;-2.89;61.84;98686.83;368691;108;1961906;-70
2021/03/23 02:55:59;;;;;;;9.13;3.30;;;;;;;-2.87;61.99;98686.70;368650;109;1961944;-70
2021/03/23 02:57:16;;;;;;;7.35;3.48;;;;;;;-2.87;61.91;98687.52;346879;109;2340946;-70
2021/03/23 02:58:21;;;;;;;6.99;3.18;;;;;;;-2.86;61.99;98690.99;372849;108;1962015;-70
2021/03/23 02:59:27;;;;;;;6.45;2.94;;;;;;;-2.88;61.91;98685.88;373288;108;1961965;-70
2021/03/23 03:00:33;;;;;;;8.39;3.05;;;;;;;-2.89;61.96;98684.19;363560;108;2209009;-71
2021/03/23 03:01:38;;;;;;;8.39;2.94;;;;;;;-2.87;61.92;98686.70;365251;103;1961869;-71
2021/03/23 03:02:44;;;;;;;6.97;3.46;;;;;;;-2.85;61.97;98691.85;372592;109;1961958;-70
2021/03/23 03:03:50;;;;;;;8.28;2.93;;;;;;;-2.83;61.95;98689.87;368525;107;1964000;-71
2021/03/23 03:04:55;;;;;;;7.99;3.27;;;;;;;-2.83;61.78;98689.87;344570;107;2202900;-70
2021/03/23 03:06:01;;;;;;;7.41;3.03;;;;;;;-2.83;61.87;98692.52;351971;108;1964905;-70
2021/03/23 03:07:06;;;;;;;8.13;3.14;;;;;;;-2.85;61.79;98684.75;372010;108;1961960;-70
2021/03/23 03:08:11;;;;;;;9.29;2.97;;;;;;;-2.87;62.14;98691.98;371892;108;1963971;-71
2021/03/23 03:09:17;;;;;;;8.34;3.29;;;;;;;-2.86;62.08;98693.64;369999;109;1961945;-70
2021/03/23 03:10:22;;;;;;;8.36;3.14;;;;;;;-2.85;62.15;98690.03;349666;109;2315992;-70
2021/03/23 03:11:28;;;;;;;8.22;2.92;;;;;;;-2.84;61.99;98688.22;359426;107;1961938;-70
2021/03/23 03:12:35;;;;;;;8.44;3.33;;;;;;;-2.87;62.08;98692.81;374696;107;1961997;-70
2021/03/23 03:13:42;;;;;;;7.66;2.76;;;;;;;-2.87;62.04;98692.81;341237;109;2586944;-70
2021/03/23 03:14:47;;;;;;;7.71;3.07;;;;;;;-2.87;62.20;98686.70;371294;109;1961987;-70
2021/03/23 03:15:55;;;;;;;7.70;3.14;;;;;;;-2.89;61.96;98689.47;370797;108;1965000;-70
2021/03/23 03:17:00;;;;;;;6.28;3.14;;;;;;;-2.91;62.19;98685.30;372269;108;1961943;-70
2021/03/23 03:18:07;;;;;;;7.89;2.88;;;;;;;-2.94;62.29;98688.24;371307;107;1962024;-70
2021/03/23 03:19:13;;;;;;;9.15;3.12;;;;;;;-2.98;62.44;98682.42;348063;105;2211022;-69
2021/03/23 03:20:21;;;;;;;8.54;3.54;;;;;;;-3.00;62.29;98686.19;368887;108;1963972;-69
2021/03/23 03:21:27;;;;;;;8.69;3.38;;;;;;;-3.02;62.70;98683.67;322760;114;1962078;-69
2021/03/23 03:22:33;;;;;;;9.94;3.53;;;;;;;-3.03;62.60;98684.66;348121;114;1961974;-69
2021/03/23 03:23:39;;;;;;;9.79;3.17;;;;;;;-3.05;62.81;98683.14;358671;111;1962976;-69
2021/03/23 03:24:44;;;;;;;7.63;3.52;;;;;;;-3.06;62.66;98687.59;335282;111;2372030;-70
2021/03/23 03:25:51;;;;;;;10.71;3.47;;;;;;;-3.07;62.65;98693.01;335797;106;1961011;-69
2021/03/23 03:27:07;;;;;;;7.84;3.39;;;;;;;-3.12;62.94;98686.36;357389;111;1962470;-70
2021/03/23 03:28:12;;;;;;;9.11;3.60;;;;;;;-3.13;62.78;98681.21;344855;104;2387486;-69
2021/03/23 03:29:18;;;;;;;9.07;3.15;;;;;;;-3.12;62.89;98688.17;351344;109;1961900;-70
2021/03/23 03:30:30;;;;;;;7.74;3.12;;;;;;;-3.12;62.98;98681.08;372492;104;1960833;-70
2021/03/23 03:31:57;;;;;;;8.31;3.65;;;;;;;-3.12;62.77;98682.89;350951;108;2456975;-70
2021/03/23 03:33:06;;;;;;;7.86;3.40;;;;;;;-3.16;63.09;98682.33;368811;110;1962008;-71
2021/03/23 03:34:11;;;;;;;9.48;3.98;;;;;;;-3.20;63.23;98688.89;369472;108;1961944;-71
2021/03/23 03:35:19;;;;;;;8.56;3.03;;;;;;;-3.19;63.44;98679.98;374622;106;1961941;-71
2021/03/23 03:36:27;;;;;;;7.63;3.52;;;;;;;-3.20;63.34;98682.75;373235;106;1962034;-71
2021/03/23 03:37:32;;;;;;;10.00;3.99;;;;;;;-3.24;63.42;98682.21;328622;108;2120565;-71
2021/03/23 03:38:37;;;;;;;11.90;4.11;;;;;;;-3.25;63.63;98685.84;366551;108;1962015;-71
2021/03/23 03:39:43;;;;;;;8.54;3.78;;;;;;;-3.24;63.45;98695.41;370924;107;1961901;-70
2021/03/23 03:40:58;;;;;;;8.39;3.36;;;;;;;-3.24;63.45;98684.85;376311;107;1962041;-71
2021/03/23 03:42:04;;;;;;;11.86;4.32;;;;;;;-3.27;63.64;98685.14;373176;106;1960836;-70
2021/03/23 03:43:11;;;;;;;10.01;4.28;;;;;;;-3.29;63.71;98683.61;354402;107;1961921;-70
2021/03/23 03:44:17;;;;;;;7.68;3.10;;;;;;;-3.30;63.90;98684.60;377347;107;1962020;-70
2021/03/23 03:45:25;;;;;;;8.65;3.47;;;;;;;-3.32;63.95;98688.20;362812;105;2294010;-70
2021/03/23 03:46:30;;;;;;;10.68;3.79;;;;;;;-3.30;63.61;98681.96;376129;104;1962301;-70
2021/03/23 03:47:36;;;;;;;8.09;3.31;;;;;;;-3.29;63.91;98688.89;352227;108;2396966;-71
2021/03/23 03:48:42;;;;;;;8.54;3.72;;;;;;;-3.28;63.84;98686.12;371379;107;1962015;-70
2021/03/23 03:49:47;;;;;;;10.14;3.11;;;;;;;-3.28;63.76;98693.19;364908;111;1961937;-70
2021/03/23 03:50:53;;;;;;;8.62;3.81;;;;;;;-3.28;63.89;98694.05;373452;108;1961982;-70
2021/03/23 03:51:58;;;;;;;8.85;3.99;;;;;;;-3.27;63.82;98689.59;344188;108;2573985;-70
2021/03/23 03:53:04;;;;;;;8.28;3.28;;;;;;;-3.27;63.72;98693.06;348202;109;1961796;-70
2021/03/23 03:54:10;;;;;;;10.09;3.73;;;;;;;-3.29;63.95;98694.17;365524;109;1961911;-70
2021/03/23 03:55:18;;;;;;;7.38;2.99;;;;;;;-3.30;63.90;98695.16;368396;109;1964039;-70
2021/03/23 03:56:25;;;;;;;7.86;3.44;;;;;;;-3.33;64.09;98693.64;373453;108;1962929;-70
2021/03/23 03:57:30;;;;;;;9.71;3.79;;;;;;;-3.35;63.92;98692.94;347724;110;2440905;-70
2021/03/23 03:58:35;;;;;;;8.41;3.35;;;;;;;-3.38;64.15;98696.70;354334;108;1962046;-71
2021/03/23 03:59:41;;;;;;;9.38;3.59;;;;;;;-3.39;64.32;98708.21;369345;109;1961997;-70
2021/03/23 04:00:46;;;;;;;7.84;3.40;;;;;;;-3.39;64.22;98697.66;367007;109;1961892;-70
2021/03/23 04:01:52;;;;;;;10.64;4.24;;;;;;;-3.41;64.03;98699.63;372435;108;1961922;-71
2021/03/23 04:03:00;;;;;;;8.79;3.30;;;;;;;-3.41;64.05;98698.80;344925;108;1962019;-70
2021/03/23 04:04:06;;;;;;;11.07;4.14;;;;;;;-3.43;64.32;98703.38;375857;108;1962020;-70
2021/03/23 04:05:29;;;;;;;8.23;3.36;;;;;;;-3.42;64.22;98697.94;370277;109;1962004;-70
2021/03/23 04:06:35;;;;;;;7.81;2.98;;;;;;;-3.42;64.52;98697.11;352435;108;2386940;-71
2021/03/23 04:07:40;;;;;;;7.82;3.34;;;;;;;-3.42;64.39;98692.66;365336;104;1960811;-71
2021/03/23 04:08:46;;;;;;;7.21;3.26;;;;;;;-3.43;64.18;98696.28;375846;105;1962936;-72
2021/03/23 04:09:52;;;;;;;10.15;3.53;;;;;;;-3.44;64.28;98699.91;375484;107;1961992;-72
2021/03/23 04:11:00;;;;;;;9.26;3.20;;;;;;;-3.42;64.31;98705.86;363710;105;2235958;-72
2021/03/23 04:12:08;;;;;;;9.11;3.57;;;;;;;-3.40;64.64;98697.81;367460;108;1964016;-72
2021/03/23 04:13:15;;;;;;;9.83;3.68;;;;;;;-3.38;64.35;98703.80;367698;110;1962004;-72
2021/03/23 04:14:21;;;;;;;7.48;3.02;;;;;;;-3.35;64.41;98712.25;329541;104;2766195;-72
2021/03/23 04:15:33;;;;;;;8.40;3.88;;;;;;;-3.35;64.65;98709.61;346906;110;1961932;-71
2021/03/23 04:16:40;;;;;;;8.36;3.64;;;;;;;-3.33;64.29;98706.84;340266;108;1961941;-71
2021/03/23 04:17:46;;;;;;;8.65;3.45;;;;;;;-3.32;64.23;98711.14;367480;110;1963023;-71
2021/03/23 04:18:52;;;;;;;8.96;3.60;;;;;;;-3.29;64.34;98713.49;364030;110;1961971;-71
2021/03/23 04:19:57;;;;;;;9.52;3.81;;;;;;;-3.29;64.12;98710.02;332818;110;2613023;-71
2021/03/23 04:21:05;;;;;;;7.39;3.25;;;;;;;-3.30;64.49;98714.48;365093;107;1962185;-71
2021/03/23 04:22:10;;;;;;;8.98;4.06;;;;;;;-3.28;64.31;98714.31;365706;111;1961954;-70
2021/03/23 04:23:32;;;;;;;8.98;3.92;;;;;;;-3.28;64.35;98719.60;342744;111;2220932;-71
2021/03/23 04:24:37;;;;;;;10.57;3.36;;;;;;;-3.29;64.52;98713.49;358845;113;1962054;-70
2021/03/23 04:25:43;;;;;;;10.39;3.74;;;;;;;-3.28;64.41;98709.03;358853;111;1962022;-71
2021/03/23 04:26:49;;;;;;;10.07;3.08;;;;;;;-3.30;64.25;98709.20;327487;111;2081654;-72
2021/03/23 04:27:56;;;;;;;8.32;3.69;;;;;;;-3.28;64.54;98706.39;365427;111;1962035;-71
2021/03/23 04:29:01;;;;;;;10.49;3.51;;;;;;;-3.28;64.53;98712.53;362001;111;1962022;-71
2021/03/23 04:30:09;;;;;;;9.49;3.63;;;;;;;-3.27;64.54;98711.55;355977;111;1961891;-71
2021/03/23 04:31:18;;;;;;;8.68;3.19;;;;;;;-3.25;64.55;98714.06;360901;106;1961715;-72
2021/03/23 04:32:24;;;;;;;7.12;3.83;;;;;;;-3.25;64.48;98708.78;358636;113;1961989;-72
2021/03/23 04:33:30;;;;;;;7.99;3.59;;;;;;;-3.25;64.50;98706.97;347743;112;2300985;-71
2021/03/23 04:34:35;;;;;;;9.94;4.02;;;;;;;-3.22;64.43;98709.32;357380;111;1962024;-71
2021/03/23 04:35:48;;;;;;;11.70;4.84;;;;;;;-3.22;64.34;98713.77;362119;112;1961886;-71
2021/03/23 04:36:53;;;;;;;12.09;4.01;;;;;;;-3.22;64.52;98709.32;322470;112;2071363;-71
2021/03/23 04:37:58;;;;;;;10.06;3.96;;;;;;;-3.22;64.35;98709.32;359457;111;1962925;-71
2021/03/23 04:39:06;;;;;;;9.87;3.87;;;;;;;-3.20;64.62;98717.94;355053;111;1963914;-71
2021/03/23 04:40:13;;;;;;;8.93;3.82;;;;;;;-3.19;64.42;98713.48;356340;111;1961951;-71
2021/03/23 04:41:19;;;;;;;9.34;4.38;;;;;;;-3.18;64.59;98718.61;356019;111;1962029;-71
2021/03/23 04:42:24;;;;;;;10.97;4.18;;;;;;;-3.17;64.31;98719.47;340852;111;2330006;-72
2021/03/23 04:43:36;;;;;;;9.83;3.36;;;;;;;-3.16;64.65;98719.30;337128;111;1962036;-71
2021/03/23 04:44:42;;;;;;;9.19;3.97;;;;;;;-3.14;64.43;98721.82;363197;103;1959704;-71
2021/03/23 04:45:47;;;;;;;11.85;3.72;;;;;;;-3.14;64.36;98720.00;347343;103;2400013;-69
2021/03/23 04:46:53;;;;;;;9.81;3.93;;;;;;;-3.13;64.47;98723.47;354574;112;1961942;-70
2021/03/23 04:47:59;;;;;;;11.12;4.09;;;;;;;-3.12;64.59;98714.59;363832;109;1961940;-70
2021/03/23 04:49:04;;;;;;;9.01;4.14;;;;;;;-3.10;64.46;98713.48;367311;110;1962884;-70
2021/03/23 04:50:12;;;;;;;11.78;4.66;;;;;;;-3.05;64.43;98713.02;322460;110;2137878;-70
2021/03/23 04:51:19;;;;;;;10.79;4.45;;;;;;;-3.03;64.13;98707.61;366128;108;1961979;-70
2021/03/23 04:52:33;;;;;;;12.64;5.13;;;;;;;-3.03;64.07;98716.36;335296;108;1962721;-70
2021/03/23 04:53:41;;;;;;;12.11;4.20;;;;;;;-3.01;64.10;98711.78;321184;114;1964022;-70
2021/03/23 04:54:46;;;;;;;9.40;4.46;;;;;;;-2.98;64.04;98718.59;346509;114;1963032;-70
2021/03/23 04:55:53;;;;;;;12.04;4.61;;;;;;;-2.95;63.98;98723.58;328263;111;2604964;-70
2021/03/23 04:56:58;;;;;;;12.48;4.77;;;;;;;-2.96;63.99;98720.11;359429;113;1961987;-71
2021/03/23 04:58:05;;;;;;;10.46;4.20;;;;;;;-2.94;63.98;98718.16;347058;116;1962020;-71
2021/03/23 04:59:11;;;;;;;7.29;3.49;;;;;;;-2.93;63.83;98716.35;333073;113;2199988;-70
2021/03/23 05:00:18;;;;;;;12.50;4.41;;;;;;;-2.94;63.91;98715.52;355971;111;1963050;-70
2021/03/23 05:01:25;;;;;;;10.44;4.77;;;;;;;-2.91;64.04;98715.23;332580;112;2189946;-70
2021/03/23 05:02:32;;;;;;;12.21;4.20;;;;;;;-2.90;64.06;98722.17;358222;111;1961972;-70
2021/03/23 05:03:39;;;;;;;10.64;4.33;;;;;;;-2.85;63.74;98731.48;315773;111;2175420;-72
2021/03/23 05:04:44;;;;;;;10.76;4.62;;;;;;;-2.84;63.75;98727.86;357346;113;1962054;-70
2021/03/23 05:06:04;;;;;;;11.06;3.97;;;;;;;-2.83;63.68;98730.38;301628;116;2123173;-70
2021/03/23 05:07:07;;;;;;;10.31;4.27;;;;;;;-2.81;63.75;98728.39;356321;113;1961991;-70
2021/03/23 05:08:14;;;;;;;8.69;3.93;;;;;;;-2.79;63.70;98726.45;358059;111;1962951;-70
2021/03/23 05:09:19;;;;;;;10.81;4.20;;;;;;;-2.77;63.62;98727.14;345347;111;2295945;-70